createdAt,value
2023-03-06T00:01:41.112Z,5.25
2023-03-06T00:04:44.248Z,4.70
2023-03-06T00:07:47.285Z,5.00
2023-03-06T00:10:50.482Z,4.47
2023-03-06T00:13:53.368Z,5.47
2023-03-06T00:16:56.731Z,4.70
2023-03-06T00:19:59.477Z,4.70
2023-03-06T00:23:03.013Z,4.47
2023-03-06T00:26:08.464Z,4.85
2023-03-06T00:29:11.850Z,4.60
2023-03-06T00:32:14.596Z,4.50
2023-03-06T00:35:17.866Z,5.20
2023-03-06T00:38:20.565Z,5.50
2023-03-06T00:41:25.294Z,4.72
2023-03-06T00:44:28.040Z,5.07
2023-03-06T00:47:31.221Z,5.32
2023-03-06T00:50:35.464Z,4.85
2023-03-06T00:53:38.470Z,4.57
2023-03-06T00:56:41.206Z,5.03
2023-03-06T00:59:44.406Z,4.10
2023-03-06T01:02:47.170Z,4.00
2023-03-06T01:05:50.203Z,4.03
2023-03-06T01:08:52.869Z,3.97
2023-03-06T01:11:56.537Z,4.20
2023-03-06T01:14:59.199Z,4.15
2023-03-06T01:18:02.431Z,4.32
2023-03-06T01:21:06.159Z,4.10
2023-03-06T01:24:10.377Z,3.90
2023-03-06T01:27:13.050Z,4.35
2023-03-06T01:30:16.203Z,4.50
2023-03-06T01:33:18.974Z,3.85
2023-03-06T01:36:22.016Z,3.62
2023-03-06T01:39:25.240Z,4.00
2023-03-06T01:42:28.388Z,3.78
2023-03-06T01:45:31.117Z,3.25
2023-03-06T01:48:34.352Z,3.15
2023-03-06T01:51:41.455Z,3.33
2023-03-06T01:54:55.285Z,3.03
2023-03-06T01:58:00.917Z,3.50
2023-03-06T02:01:04.082Z,3.50
2023-03-06T02:04:07.500Z,3.05
2023-03-06T02:07:11.250Z,3.22
2023-03-06T02:10:16.105Z,3.10
2023-03-06T02:13:20.283Z,3.05
2023-03-06T02:16:31.070Z,2.92
2023-03-06T02:19:51.742Z,3.05
2023-03-06T02:23:05.235Z,3.12
2023-03-06T02:26:09.802Z,2.90
2023-03-06T02:29:12.990Z,3.20
2023-03-06T02:32:16.063Z,3.53
2023-03-06T02:35:23.843Z,3.42
2023-03-06T02:38:34.602Z,3.58
2023-03-06T02:41:37.800Z,3.37
2023-03-06T02:44:40.923Z,3.78
2023-03-06T02:47:43.914Z,3.33
2023-03-06T02:50:47.803Z,3.33
2023-03-06T02:53:51.272Z,3.10
2023-03-06T02:56:54.085Z,6.47
2023-03-06T02:59:58.096Z,6.62
2023-03-06T03:03:01.785Z,48.40
2023-03-06T03:06:06.489Z,17.67
2023-03-06T03:09:09.438Z,8.63
2023-03-06T03:12:12.725Z,5.83
2023-03-06T03:15:15.486Z,4.18
2023-03-06T03:18:18.714Z,4.75
2023-03-06T03:21:21.618Z,4.95
2023-03-06T03:24:25.384Z,4.60
2023-03-06T03:27:28.146Z,9.93
2023-03-06T03:30:31.583Z,8.75
2023-03-06T03:33:34.640Z,6.15
2023-03-06T03:36:37.826Z,4.07
2023-03-06T03:39:42.070Z,4.10
2023-03-06T03:42:46.170Z,4.00
2023-03-06T03:45:49.223Z,3.15
2023-03-06T03:48:53.166Z,3.58
2023-03-06T03:51:57.358Z,3.80
2023-03-06T03:55:01.208Z,4.27
2023-03-06T03:58:04.892Z,3.90
2023-03-06T04:01:08.409Z,3.80
2023-03-06T04:04:13.297Z,3.85
2023-03-06T04:07:16.630Z,3.90
2023-03-06T04:10:19.839Z,3.40
2023-03-06T04:13:23.212Z,4.73
2023-03-06T04:16:26.607Z,4.10
2023-03-06T04:19:29.492Z,4.37
2023-03-06T04:22:33.421Z,4.10
2023-03-06T04:25:36.581Z,5.13
2023-03-06T04:28:41.813Z,4.40
2023-03-06T04:31:44.949Z,4.30
2023-03-06T04:34:48.581Z,4.50
2023-03-06T04:37:52.391Z,4.70
2023-03-06T04:40:56.409Z,3.77
2023-03-06T04:43:59.690Z,4.45
2023-03-06T04:47:03.121Z,4.93
2023-03-06T04:50:06.389Z,4.62
2023-03-06T04:53:09.816Z,4.37
2023-03-06T04:56:12.558Z,4.83
2023-03-06T04:59:15.709Z,4.40
2023-03-06T05:02:18.920Z,4.43
2023-03-06T05:05:22.048Z,4.10
2023-03-06T05:08:24.803Z,4.17
2023-03-06T05:11:28.106Z,4.87
2023-03-06T05:14:31.654Z,4.82
2023-03-06T05:17:34.904Z,4.43
2023-03-06T05:20:38.085Z,4.37
2023-03-06T05:23:41.253Z,4.13
2023-03-06T05:26:43.997Z,3.83
2023-03-06T05:29:47.193Z,5.00
2023-03-06T05:32:50.562Z,6.05
2023-03-06T05:35:53.796Z,4.45
2023-03-06T05:38:56.465Z,5.23
2023-03-06T05:41:59.692Z,4.63
2023-03-06T05:45:05.777Z,5.28
2023-03-06T05:48:13.740Z,3.60
2023-03-06T05:51:16.574Z,5.18
2023-03-06T05:54:19.709Z,4.97
2023-03-06T05:57:23.968Z,5.55
2023-03-06T06:00:27.064Z,5.43
2023-03-06T06:03:30.478Z,5.75
2023-03-06T06:06:33.211Z,44.47
2023-03-06T06:09:36.285Z,13.93
2023-03-06T06:12:39.201Z,12.53
2023-03-06T06:15:42.357Z,7.97
2023-03-06T06:18:45.774Z,7.50
2023-03-06T06:21:51.237Z,6.30
2023-03-06T06:24:54.033Z,7.03
2023-03-06T06:27:58.035Z,7.27
2023-03-06T06:31:00.878Z,7.35
2023-03-06T06:34:05.865Z,12.52
2023-03-06T06:37:08.722Z,10.73
2023-03-06T06:40:12.653Z,20.83
2023-03-06T06:43:15.471Z,14.23
2023-03-06T06:46:53.330Z,13.02
2023-03-06T06:49:41.853Z,9.40
2023-03-06T06:52:44.884Z,10.75
2023-03-06T06:55:47.645Z,11.67
2023-03-06T06:58:59.118Z,7.23
2023-03-06T07:02:06.630Z,6.97
2023-03-06T07:05:10.944Z,7.60
2023-03-06T07:08:13.734Z,7.30
2023-03-06T07:11:19.161Z,6.90
2023-03-06T07:14:21.903Z,8.07
2023-03-06T07:17:25.044Z,6.55
2023-03-06T07:20:27.817Z,5.22
2023-03-06T07:23:31.219Z,7.35
2023-03-06T07:26:35.043Z,5.80
2023-03-06T07:29:38.141Z,5.30
2023-03-06T07:32:41.000Z,6.30
2023-03-06T07:35:44.717Z,6.65
2023-03-06T07:38:47.542Z,6.95
2023-03-06T07:41:52.561Z,7.90
2023-03-06T07:44:55.726Z,7.03
2023-03-06T07:47:58.887Z,13.40
2023-03-06T07:51:05.410Z,10.82
2023-03-06T07:54:08.623Z,7.93
2023-03-06T07:57:11.261Z,7.60
2023-03-06T08:00:15.889Z,4.93
2023-03-06T08:03:19.207Z,5.47
2023-03-06T08:06:25.347Z,4.90
2023-03-06T08:09:28.640Z,6.65
2023-03-06T08:12:34.457Z,4.97
2023-03-06T08:15:37.504Z,6.33
2023-03-06T08:18:40.500Z,5.40
2023-03-06T08:21:43.567Z,4.68
2023-03-06T08:24:46.366Z,5.03
2023-03-06T08:27:49.547Z,5.20
2023-03-06T08:30:52.425Z,4.87
2023-03-06T08:33:57.185Z,5.05
2023-03-06T08:36:59.936Z,4.78
2023-03-06T08:40:04.903Z,5.45
2023-03-06T08:43:12.984Z,6.97
2023-03-06T08:46:19.095Z,5.60
2023-03-06T08:49:22.164Z,6.28
2023-03-06T08:52:25.287Z,6.28
2023-03-06T08:55:28.499Z,5.22
2023-03-06T08:58:32.153Z,5.20
2023-03-06T09:01:37.848Z,5.27
2023-03-06T09:04:41.603Z,8.85
2023-03-06T09:07:44.316Z,7.97
2023-03-06T09:10:49.193Z,5.18
2023-03-06T09:13:52.848Z,5.60
2023-03-06T09:16:56.022Z,3.47
2023-03-06T09:19:59.333Z,4.68
2023-03-06T09:23:02.391Z,4.90
2023-03-06T09:26:06.694Z,4.72
2023-03-06T09:29:09.690Z,5.43
2023-03-06T09:32:12.480Z,5.30
2023-03-06T09:35:15.634Z,4.50
2023-03-06T09:38:19.293Z,3.80
2023-03-06T09:41:32.911Z,4.30
2023-03-06T09:44:37.293Z,4.17
2023-03-06T09:47:56.734Z,3.63
2023-03-06T09:51:07.913Z,4.72
2023-03-06T09:54:15.460Z,3.83
2023-03-06T09:57:31.063Z,4.12
2023-03-06T10:00:38.889Z,4.97
2023-03-06T10:04:03.939Z,5.53
2023-03-06T10:07:13.295Z,5.82
2023-03-06T10:10:34.447Z,4.40
2023-03-06T10:13:38.982Z,4.75
2023-03-06T10:16:42.282Z,4.83
2023-03-06T10:19:47.846Z,4.20
2023-03-06T10:23:25.000Z,5.20
2023-03-06T10:26:37.914Z,5.25
2023-03-06T10:30:06.741Z,8.13
2023-03-06T10:33:47.895Z,5.00
2023-03-06T10:36:51.469Z,6.97
2023-03-06T10:40:14.247Z,4.12
2023-03-06T10:43:17.435Z,5.47
2023-03-06T10:46:37.882Z,6.82
2023-03-06T10:49:41.351Z,5.23
2023-03-06T10:52:44.023Z,5.57
2023-03-06T10:55:59.161Z,5.87
2023-03-06T10:59:25.681Z,6.18
2023-03-06T11:02:37.418Z,5.07
2023-03-06T11:05:40.184Z,6.40
2023-03-06T11:08:44.684Z,5.03
2023-03-06T11:11:48.601Z,4.20
2023-03-06T11:15:10.629Z,4.07
2023-03-06T11:18:13.366Z,6.22
2023-03-06T11:21:32.029Z,5.97
2023-03-06T11:24:42.747Z,5.50
2023-03-06T11:27:52.944Z,6.45
2023-03-06T11:31:11.000Z,7.62
2023-03-06T11:34:51.789Z,3.20
2023-03-06T11:37:59.400Z,7.37
2023-03-06T11:41:11.826Z,6.63
2023-03-06T11:44:26.547Z,7.20
2023-03-06T11:47:35.288Z,4.35
2023-03-06T11:50:46.908Z,5.55
2023-03-06T11:53:50.013Z,4.20
2023-03-06T11:57:19.023Z,6.27
2023-03-06T12:00:33.131Z,5.43
2023-03-06T12:03:51.532Z,5.68
2023-03-06T12:07:15.310Z,7.07
2023-03-06T12:10:28.336Z,7.47
2023-03-06T12:17:05.867Z,7.72
2023-03-06T12:20:20.079Z,6.95
2023-03-06T12:23:28.980Z,6.85
2023-03-06T12:26:46.943Z,6.53
2023-03-06T12:30:29.008Z,7.70
2023-03-06T12:33:41.222Z,6.45
2023-03-06T12:37:16.752Z,2.95
2023-03-06T12:41:10.856Z,4.45
2023-03-06T12:44:25.888Z,8.47
2023-03-06T12:47:31.582Z,7.80
2023-03-06T12:50:39.014Z,5.82
2023-03-06T12:53:42.731Z,4.57
2023-03-06T12:56:47.448Z,7.57
2023-03-06T12:59:50.559Z,8.63
2023-03-06T13:03:15.291Z,12.17
2023-03-06T13:06:49.855Z,10.10
2023-03-06T13:10:23.518Z,8.48
2023-03-06T13:13:33.069Z,8.00
2023-03-06T13:16:36.349Z,8.90
2023-03-06T13:19:39.092Z,8.60
2023-03-06T13:22:47.535Z,7.60
2023-03-06T13:25:51.084Z,7.57
2023-03-06T13:28:58.438Z,8.50
2023-03-06T13:32:01.345Z,10.20
2023-03-06T13:35:30.775Z,8.87
2023-03-06T13:38:37.541Z,10.18
2023-03-06T13:41:57.425Z,8.32
2023-03-06T13:45:14.327Z,9.00
2023-03-06T13:48:44.097Z,9.03
2023-03-06T13:51:54.487Z,8.10
2023-03-06T13:55:09.558Z,7.07
2023-03-06T13:58:45.875Z,7.78
2023-03-06T14:01:48.872Z,7.72
2023-03-06T14:05:00.164Z,9.77
2023-03-06T14:08:10.491Z,10.10
2023-03-06T14:11:21.439Z,11.57
2023-03-06T14:14:32.692Z,8.68
2023-03-06T14:17:39.358Z,8.60
2023-03-06T14:21:00.212Z,9.63
2023-03-06T14:24:05.040Z,8.17
2023-03-06T14:27:09.343Z,7.57
2023-03-06T14:30:21.201Z,12.60
2023-03-06T14:33:33.924Z,8.40
2023-03-06T14:36:42.875Z,8.33
2023-03-06T14:39:46.947Z,10.10
2023-03-06T14:42:50.045Z,9.43
2023-03-06T14:45:58.728Z,9.18
2023-03-06T14:49:01.890Z,8.00
2023-03-06T14:52:04.747Z,8.87
2023-03-06T14:55:18.122Z,10.73
2023-03-06T14:58:28.217Z,9.48
2023-03-06T15:01:43.248Z,8.13
2023-03-06T15:04:49.740Z,9.77
2023-03-06T15:07:55.857Z,11.87
2023-03-06T15:11:01.668Z,12.90
2023-03-06T15:14:05.680Z,11.30
2023-03-06T15:17:17.729Z,10.82
2023-03-06T15:20:43.758Z,18.48
2023-03-06T15:23:49.933Z,14.43
2023-03-06T15:26:55.472Z,16.23
2023-03-06T15:30:23.423Z,13.57
2023-03-06T15:33:26.858Z,11.30
2023-03-06T15:36:35.031Z,12.18
2023-03-06T15:39:40.603Z,11.83
2023-03-06T15:42:43.537Z,12.53
2023-03-06T15:45:46.678Z,11.50
2023-03-06T15:48:53.202Z,10.73
2023-03-06T15:51:56.454Z,11.60
2023-03-06T15:54:59.525Z,11.77
2023-03-06T15:58:04.850Z,12.43
2023-03-06T16:01:08.462Z,12.95
2023-03-06T16:04:11.708Z,10.20
2023-03-06T16:07:15.442Z,10.18
2023-03-06T16:10:24.371Z,10.47
2023-03-06T16:13:29.266Z,12.07
2023-03-06T16:16:38.094Z,12.35
2023-03-06T16:19:41.723Z,12.23
2023-03-06T16:22:46.589Z,13.20
2023-03-06T16:25:50.593Z,11.70
2023-03-06T16:28:54.027Z,11.17
2023-03-06T16:31:58.857Z,13.55
2023-03-06T16:35:02.342Z,17.30
2023-03-06T16:38:06.578Z,15.75
2023-03-06T16:41:10.141Z,14.57
2023-03-06T16:44:13.850Z,13.33
2023-03-06T16:47:18.108Z,12.32
2023-03-06T16:50:28.935Z,12.75
2023-03-06T16:53:32.851Z,15.07
2023-03-06T16:56:37.931Z,16.53
2023-03-06T16:59:42.826Z,18.20
2023-03-06T17:02:49.091Z,18.23
2023-03-06T17:05:55.732Z,19.92
2023-03-06T17:08:59.912Z,19.08
2023-03-06T17:12:03.778Z,18.80
2023-03-06T17:15:08.718Z,18.43
2023-03-06T17:18:13.414Z,16.95
2023-03-06T17:21:17.460Z,26.12
2023-03-06T17:24:21.821Z,29.25
2023-03-06T17:27:26.058Z,21.33
2023-03-06T17:30:30.610Z,15.63
2023-03-06T17:33:33.684Z,16.23
2023-03-06T17:36:39.412Z,20.12
2023-03-06T17:39:42.844Z,16.98
2023-03-06T17:42:46.689Z,10.97
2023-03-06T17:45:49.817Z,14.47
2023-03-06T17:48:54.397Z,16.73
2023-03-06T17:52:00.673Z,19.67
2023-03-06T17:55:05.889Z,16.62
2023-03-06T17:58:11.376Z,17.27
2023-03-06T18:01:19.177Z,17.93
2023-03-06T18:04:22.862Z,20.65
2023-03-06T18:07:27.636Z,27.35
2023-03-06T18:10:32.226Z,26.90
2023-03-06T18:13:38.083Z,25.50
2023-03-06T18:16:43.401Z,24.87
2023-03-06T18:19:51.583Z,27.27
2023-03-06T18:22:55.900Z,30.23
2023-03-06T18:26:24.897Z,32.67
2023-03-06T18:29:29.413Z,31.30
2023-03-06T18:32:33.601Z,27.57
2023-03-06T18:35:37.910Z,26.52
2023-03-06T18:38:44.756Z,29.90
2023-03-06T18:41:48.865Z,28.92
2023-03-06T18:44:53.001Z,26.73
2023-03-06T18:47:56.727Z,27.97
2023-03-06T18:51:11.009Z,28.50
2023-03-06T18:54:15.727Z,29.80
2023-03-06T18:57:19.119Z,29.50
2023-03-06T19:00:23.790Z,29.13
2023-03-06T19:03:27.915Z,29.50
2023-03-06T19:06:32.656Z,32.72
2023-03-06T19:09:37.628Z,29.25
2023-03-06T19:12:45.356Z,27.92
2023-03-06T19:15:50.378Z,25.90
2023-03-06T19:19:01.351Z,24.43
2023-03-06T19:22:06.228Z,25.98
2023-03-06T19:25:10.263Z,28.27
2023-03-06T19:28:13.225Z,26.83
2023-03-06T19:31:25.130Z,32.07
2023-03-06T19:34:29.279Z,32.63
2023-03-06T19:37:38.153Z,29.63
2023-03-06T19:40:41.857Z,28.90
2023-03-06T19:43:47.246Z,30.23
2023-03-06T19:46:51.543Z,31.10
2023-03-06T19:49:56.075Z,31.07
2023-03-06T19:53:01.567Z,27.23
2023-03-06T19:56:16.613Z,27.77
2023-03-06T19:59:21.596Z,26.70
2023-03-06T20:02:27.998Z,27.20
2023-03-06T20:05:32.039Z,28.40
2023-03-06T20:08:37.875Z,44.30
2023-03-06T20:11:43.577Z,40.42
2023-03-06T20:14:49.012Z,40.00
2023-03-06T20:17:54.187Z,37.93
2023-03-06T20:21:04.861Z,35.20
2023-03-06T20:24:11.750Z,34.60
2023-03-06T20:27:16.625Z,38.38
2023-03-06T20:30:21.839Z,37.40
2023-03-06T20:33:27.462Z,38.07
2023-03-06T20:36:36.080Z,38.93
2023-03-06T20:39:43.429Z,38.45
2023-03-06T20:42:47.480Z,41.22
2023-03-06T20:46:02.811Z,40.28
2023-03-06T20:49:08.335Z,39.43
2023-03-06T20:52:15.033Z,40.77
2023-03-06T20:55:18.897Z,40.78
2023-03-06T20:58:26.303Z,39.55
2023-03-06T21:01:31.825Z,40.78
2023-03-06T21:04:36.864Z,44.87
2023-03-06T21:07:40.498Z,48.20
2023-03-06T21:10:46.704Z,47.40
2023-03-06T21:13:50.748Z,34.95
2023-03-06T21:16:54.495Z,32.88
2023-03-06T21:19:58.701Z,31.67
2023-03-06T21:23:04.998Z,29.00
2023-03-06T21:26:08.833Z,28.83
2023-03-06T21:29:12.123Z,31.15
2023-03-06T21:32:15.618Z,32.65
2023-03-06T21:35:19.311Z,28.97
2023-03-06T21:38:22.505Z,28.73
2023-03-06T21:41:28.678Z,31.15
2023-03-06T21:44:32.374Z,30.55
2023-03-06T21:47:40.984Z,29.98
2023-03-06T21:50:45.911Z,29.50
2023-03-06T21:53:49.064Z,27.23
2023-03-06T21:56:52.107Z,24.63
2023-03-06T21:59:54.832Z,22.85
2023-03-06T22:02:57.924Z,22.50
2023-03-06T22:06:12.162Z,26.20
2023-03-06T22:09:16.433Z,25.43
2023-03-06T22:12:19.529Z,23.80
2023-03-06T22:15:22.398Z,21.83
2023-03-06T22:18:25.626Z,22.15
2023-03-06T22:21:28.411Z,22.20
2023-03-06T22:24:33.548Z,21.23
2023-03-06T22:27:36.754Z,20.67
2023-03-06T22:30:40.860Z,22.23
2023-03-06T22:33:44.310Z,20.40
2023-03-06T22:36:47.441Z,20.83
2023-03-06T22:39:50.380Z,20.87
2023-03-06T22:42:53.369Z,20.05
2023-03-06T22:46:02.729Z,20.02
2023-03-06T22:49:06.980Z,19.75
2023-03-06T22:52:10.099Z,19.50
2023-03-06T22:55:13.087Z,19.03
2023-03-06T22:58:16.847Z,17.45
2023-03-06T23:01:24.009Z,18.27
2023-03-06T23:04:27.622Z,16.20
2023-03-06T23:07:32.290Z,14.17
2023-03-06T23:10:40.503Z,14.57
2023-03-06T23:14:03.152Z,15.38
2023-03-06T23:17:25.534Z,15.50
2023-03-06T23:20:47.847Z,14.57
2023-03-06T23:24:10.051Z,16.10
2023-03-06T23:27:15.166Z,16.23
2023-03-06T23:30:18.542Z,15.02
2023-03-06T23:33:21.637Z,15.02
2023-03-06T23:36:25.006Z,16.25
2023-03-06T23:39:28.101Z,15.73
2023-03-06T23:42:30.974Z,16.33
2023-03-06T23:45:34.236Z,16.35
2023-03-06T23:48:38.629Z,17.60
2023-03-06T23:51:41.740Z,14.90
2023-03-06T23:54:44.557Z,15.93
2023-03-06T23:57:47.609Z,15.38
